sensor_id;sensor_type;location;lat;lon;timestamp;pressure;altitude;pressure_sealevel;temperature;humidity
25498;BME280;13406;53.380;7.226;2023-05-23T00:00:54;101916.13;;;13.83;100.00
25498;BME280;13406;53.380;7.226;2023-05-23T00:03:20;101558.59;;;11.91;100.00
25498;BME280;13406;53.380;7.226;2023-05-23T00:05:48;101786.16;;;13.38;100.00
25498;BME280;13406;53.380;7.226;2023-05-23T00:08:15;101722.53;;;12.94;100.00
25498;BME280;13406;53.380;7.226;2023-05-23T00:10:41;101720.44;;;12.68;100.00
25498;BME280;13406;53.380;7.226;2023-05-23T00:13:07;101520.72;;;11.86;100.00
25498;BME280;13406;53.380;7.226;2023-05-23T00:15:41;101717.47;;;12.62;100.00
25498;BME280;13406;53.380;7.226;2023-05-23T00:18:07;101799.16;;;13.55;100.00
25498;BME280;13406;53.380;7.226;2023-05-23T00:20:36;101498.63;;;11.91;100.00
25498;BME280;13406;53.380;7.226;2023-05-23T00:23:05;101944.03;;;14.46;100.00
25498;BME280;13406;53.380;7.226;2023-05-23T00:25:32;101817.16;;;13.48;100.00
25498;BME280;13406;53.380;7.226;2023-05-23T00:28:01;101545.91;;;12.21;100.00
25498;BME280;13406;53.380;7.226;2023-05-23T00:30:28;101743.91;;;13.45;100.00
25498;BME280;13406;53.380;7.226;2023-05-23T00:32:54;101642.56;;;12.44;100.00
25498;BME280;13406;53.380;7.226;2023-05-23T00:35:20;101540.75;;;12.05;100.00
25498;BME280;13406;53.380;7.226;2023-05-23T00:37:48;101782.81;;;13.57;100.00
25498;BME280;13406;53.380;7.226;2023-05-23T00:40:18;101741.75;;;13.12;100.00
25498;BME280;13406;53.380;7.226;2023-05-23T00:42:44;101673.38;;;12.63;100.00
25498;BME280;13406;53.380;7.226;2023-05-23T00:45:10;101582.72;;;12.21;100.00
25498;BME280;13406;53.380;7.226;2023-05-23T00:47:39;101661.06;;;12.54;100.00
25498;BME280;13406;53.380;7.226;2023-05-23T00:50:07;101860.59;;;13.88;100.00
25498;BME280;13406;53.380;7.226;2023-05-23T00:52:34;101719.13;;;12.63;100.00
25498;BME280;13406;53.380;7.226;2023-05-23T00:55:00;101767.66;;;12.92;100.00
25498;BME280;13406;53.380;7.226;2023-05-23T00:57:26;101755.75;;;13.01;100.00
25498;BME280;13406;53.380;7.226;2023-05-23T00:59:52;101879.19;;;13.55;100.00
25498;BME280;13406;53.380;7.226;2023-05-23T01:02:17;101725.53;;;12.84;100.00
25498;BME280;13406;53.380;7.226;2023-05-23T01:04:47;101780.09;;;12.93;100.00
25498;BME280;13406;53.380;7.226;2023-05-23T01:07:18;101610.88;;;12.04;100.00
25498;BME280;13406;53.380;7.226;2023-05-23T01:09:44;101678.63;;;12.50;100.00
25498;BME280;13406;53.380;7.226;2023-05-23T01:12:30;101694.22;;;12.40;100.00
25498;BME280;13406;53.380;7.226;2023-05-23T01:15:05;101737.34;;;12.61;100.00
25498;BME280;13406;53.380;7.226;2023-05-23T01:18:09;102033.91;;;14.40;100.00
25498;BME280;13406;53.380;7.226;2023-05-23T01:20:40;101707.53;;;12.12;100.00
25498;BME280;13406;53.380;7.226;2023-05-23T01:23:28;102029.81;;;14.22;100.00
25498;BME280;13406;53.380;7.226;2023-05-23T01:26:16;101649.34;;;12.04;100.00
25498;BME280;13406;53.380;7.226;2023-05-23T01:28:46;101939.72;;;13.52;100.00
25498;BME280;13406;53.380;7.226;2023-05-23T01:31:15;101720.34;;;12.25;100.00
25498;BME280;13406;53.380;7.226;2023-05-23T01:33:43;101706.00;;;12.03;100.00
25498;BME280;13406;53.380;7.226;2023-05-23T01:36:11;101861.50;;;13.09;100.00
25498;BME280;13406;53.380;7.226;2023-05-23T01:38:38;101820.28;;;12.58;100.00
25498;BME280;13406;53.380;7.226;2023-05-23T01:41:03;101850.69;;;12.88;100.00
25498;BME280;13406;53.380;7.226;2023-05-23T01:43:29;101787.84;;;12.44;100.00
25498;BME280;13406;53.380;7.226;2023-05-23T01:45:55;101828.22;;;12.81;100.00
25498;BME280;13406;53.380;7.226;2023-05-23T01:48:22;101636.00;;;11.81;100.00
25498;BME280;13406;53.380;7.226;2023-05-23T01:50:48;101656.22;;;11.62;100.00
25498;BME280;13406;53.380;7.226;2023-05-23T01:53:20;101884.13;;;12.94;100.00
25498;BME280;13406;53.380;7.226;2023-05-23T01:55:46;101792.84;;;12.48;100.00
25498;BME280;13406;53.380;7.226;2023-05-23T01:58:12;101787.84;;;12.44;100.00
25498;BME280;13406;53.380;7.226;2023-05-23T02:00:38;101804.63;;;12.47;100.00
25498;BME280;13406;53.380;7.226;2023-05-23T02:03:03;101957.97;;;13.36;100.00
25498;BME280;13406;53.380;7.226;2023-05-23T02:05:30;101806.56;;;12.38;100.00
25498;BME280;13406;53.380;7.226;2023-05-23T02:07:55;101911.28;;;13.14;100.00
25498;BME280;13406;53.380;7.226;2023-05-23T02:10:21;101746.41;;;11.94;100.00
25498;BME280;13406;53.380;7.226;2023-05-23T02:12:47;101727.47;;;12.17;100.00
25498;BME280;13406;53.380;7.226;2023-05-23T02:15:12;102068.41;;;14.01;100.00
25498;BME280;13406;53.380;7.226;2023-05-23T02:17:38;101801.88;;;12.25;100.00
25498;BME280;13406;53.380;7.226;2023-05-23T02:20:04;101740.19;;;12.09;100.00
25498;BME280;13406;53.380;7.226;2023-05-23T02:22:30;101831.81;;;12.37;100.00
25498;BME280;13406;53.380;7.226;2023-05-23T02:24:56;101849.00;;;12.51;100.00
25498;BME280;13406;53.380;7.226;2023-05-23T02:27:21;101662.53;;;11.54;100.00
25498;BME280;13406;53.380;7.226;2023-05-23T02:29:47;101786.13;;;11.92;100.00
25498;BME280;13406;53.380;7.226;2023-05-23T02:32:12;101829.22;;;12.29;100.00
25498;BME280;13406;53.380;7.226;2023-05-23T02:34:38;101889.81;;;12.54;100.00
25498;BME280;13406;53.380;7.226;2023-05-23T02:37:04;101819.31;;;12.14;100.00
25498;BME280;13406;53.380;7.226;2023-05-23T02:39:29;101701.22;;;11.45;100.00
25498;BME280;13406;53.380;7.226;2023-05-23T02:41:55;101693.16;;;11.30;100.00
25498;BME280;13406;53.380;7.226;2023-05-23T02:44:20;101698.91;;;11.42;100.00
25498;BME280;13406;53.380;7.226;2023-05-23T02:46:46;101823.91;;;11.91;100.00
25498;BME280;13406;53.380;7.226;2023-05-23T02:49:11;101756.50;;;11.40;100.00
25498;BME280;13406;53.380;7.226;2023-05-23T02:51:37;102051.72;;;13.55;100.00
25498;BME280;13406;53.380;7.226;2023-05-23T02:54:02;101743.47;;;11.14;100.00
25498;BME280;13406;53.380;7.226;2023-05-23T02:56:28;101724.38;;;10.94;100.00
25498;BME280;13406;53.380;7.226;2023-05-23T02:58:53;101668.66;;;11.11;100.00
25498;BME280;13406;53.380;7.226;2023-05-23T03:01:19;101770.56;;;11.27;100.00
25498;BME280;13406;53.380;7.226;2023-05-23T03:03:44;102039.34;;;13.16;100.00
25498;BME280;13406;53.380;7.226;2023-05-23T03:06:10;101745.00;;;11.31;100.00
25498;BME280;13406;53.380;7.226;2023-05-23T03:08:41;101742.41;;;11.23;100.00
25498;BME280;13406;53.380;7.226;2023-05-23T03:11:08;101634.78;;;10.49;100.00
25498;BME280;13406;53.380;7.226;2023-05-23T03:13:36;101827.81;;;11.65;100.00
25498;BME280;13406;53.380;7.226;2023-05-23T03:16:02;101849.81;;;11.69;100.00
25498;BME280;13406;53.380;7.226;2023-05-23T03:18:27;101838.91;;;11.47;100.00
25498;BME280;13406;53.380;7.226;2023-05-23T03:20:52;101832.72;;;11.62;100.00
25498;BME280;13406;53.380;7.226;2023-05-23T03:23:18;101899.97;;;11.76;100.00
25498;BME280;13406;53.380;7.226;2023-05-23T03:25:43;101862.03;;;11.48;100.00
25498;BME280;13406;53.380;7.226;2023-05-23T03:28:09;101676.56;;;10.43;100.00
25498;BME280;13406;53.380;7.226;2023-05-23T03:30:36;101803.03;;;10.94;100.00
25498;BME280;13406;53.380;7.226;2023-05-23T03:33:02;101820.72;;;10.80;100.00
25498;BME280;13406;53.380;7.226;2023-05-23T03:35:27;102019.72;;;11.87;100.00
25498;BME280;13406;53.380;7.226;2023-05-23T03:37:53;101868.31;;;10.86;100.00
25498;BME280;13406;53.380;7.226;2023-05-23T03:40:18;102068.94;;;11.88;100.00
25498;BME280;13406;53.380;7.226;2023-05-23T03:42:43;102003.13;;;11.44;100.00
25498;BME280;13406;53.380;7.226;2023-05-23T03:45:09;101885.25;;;10.56;100.00
25498;BME280;13406;53.380;7.226;2023-05-23T03:47:35;102003.06;;;11.21;100.00
25498;BME280;13406;53.380;7.226;2023-05-23T03:50:00;102253.47;;;12.82;100.00
25498;BME280;13406;53.380;7.226;2023-05-23T03:52:26;102237.84;;;12.78;100.00
25498;BME280;13406;53.380;7.226;2023-05-23T03:54:51;102250.78;;;12.82;100.00
25498;BME280;13406;53.380;7.226;2023-05-23T03:57:17;102258.19;;;13.03;100.00
25498;BME280;13406;53.380;7.226;2023-05-23T03:59:42;102265.38;;;12.88;100.00
25498;BME280;13406;53.380;7.226;2023-05-23T04:02:07;102287.28;;;12.85;100.00
25498;BME280;13406;53.380;7.226;2023-05-23T04:04:33;102274.97;;;12.91;100.00
25498;BME280;13406;53.380;7.226;2023-05-23T04:06:59;102239.94;;;12.68;100.00
25498;BME280;13406;53.380;7.226;2023-05-23T04:09:25;102264.97;;;12.76;100.00
25498;BME280;13406;53.380;7.226;2023-05-23T04:11:51;102286.44;;;12.84;100.00
25498;BME280;13406;53.380;7.226;2023-05-23T04:14:17;102248.94;;;12.52;100.00
25498;BME280;13406;53.380;7.226;2023-05-23T04:16:44;102298.56;;;12.80;100.00
25498;BME280;13406;53.380;7.226;2023-05-23T04:19:09;102314.16;;;12.93;100.00
25498;BME280;13406;53.380;7.226;2023-05-23T04:21:36;102276.28;;;12.63;100.00
25498;BME280;13406;53.380;7.226;2023-05-23T04:24:01;102330.88;;;12.80;100.00
25498;BME280;13406;53.380;7.226;2023-05-23T04:26:27;102307.38;;;12.74;100.00
25498;BME280;13406;53.380;7.226;2023-05-23T04:28:53;102312.03;;;12.80;100.00
25498;BME280;13406;53.380;7.226;2023-05-23T04:31:21;102296.00;;;12.87;100.00
25498;BME280;13406;53.380;7.226;2023-05-23T04:33:47;102301.47;;;13.02;100.00
25498;BME280;13406;53.380;7.226;2023-05-23T04:36:13;102322.94;;;12.87;100.00
25498;BME280;13406;53.380;7.226;2023-05-23T04:38:38;102298.94;;;12.77;100.00
25498;BME280;13406;53.380;7.226;2023-05-23T04:41:05;102339.34;;;13.00;100.00
25498;BME280;13406;53.380;7.226;2023-05-23T04:43:31;102352.09;;;13.06;100.00
25498;BME280;13406;53.380;7.226;2023-05-23T04:46:01;102321.34;;;12.70;100.00
25498;BME280;13406;53.380;7.226;2023-05-23T04:48:26;102356.47;;;12.84;100.00
25498;BME280;13406;53.380;7.226;2023-05-23T04:50:52;102366.22;;;12.85;100.00
25498;BME280;13406;53.380;7.226;2023-05-23T04:53:20;102370.22;;;12.89;100.00
25498;BME280;13406;53.380;7.226;2023-05-23T04:55:45;102378.06;;;12.68;100.00
25498;BME280;13406;53.380;7.226;2023-05-23T04:58:11;102367.56;;;12.81;100.00
25498;BME280;13406;53.380;7.226;2023-05-23T05:00:37;102176.03;;;11.60;100.00
25498;BME280;13406;53.380;7.226;2023-05-23T05:03:02;102389.75;;;12.92;100.00
25498;BME280;13406;53.380;7.226;2023-05-23T05:05:27;102383.72;;;12.81;100.00
25498;BME280;13406;53.380;7.226;2023-05-23T05:07:53;102366.03;;;12.48;100.00
25498;BME280;13406;53.380;7.226;2023-05-23T05:10:19;102399.84;;;12.58;100.00
25498;BME280;13406;53.380;7.226;2023-05-23T05:12:46;102440.44;;;12.88;100.00
25498;BME280;13406;53.380;7.226;2023-05-23T05:15:15;102453.69;;;12.89;100.00
25498;BME280;13406;53.380;7.226;2023-05-23T05:17:41;102464.47;;;12.89;100.00
25498;BME280;13406;53.380;7.226;2023-05-23T05:20:07;102440.00;;;12.60;100.00
25498;BME280;13406;53.380;7.226;2023-05-23T05:22:34;102474.59;;;12.87;100.00
25498;BME280;13406;53.380;7.226;2023-05-23T05:25:01;102506.97;;;12.55;100.00
25498;BME280;13406;53.380;7.226;2023-05-23T05:27:28;102514.22;;;12.62;100.00
25498;BME280;13406;53.380;7.226;2023-05-23T05:29:53;102498.91;;;12.55;100.00
25498;BME280;13406;53.380;7.226;2023-05-23T05:32:22;102461.06;;;12.48;100.00
25498;BME280;13406;53.380;7.226;2023-05-23T05:34:48;102473.56;;;12.33;100.00
25498;BME280;13406;53.380;7.226;2023-05-23T05:37:15;102525.47;;;12.66;100.00
25498;BME280;13406;53.380;7.226;2023-05-23T05:39:40;102549.00;;;12.72;100.00
25498;BME280;13406;53.380;7.226;2023-05-23T05:42:06;102529.03;;;12.50;100.00
25498;BME280;13406;53.380;7.226;2023-05-23T05:44:31;102438.44;;;11.93;100.00
25498;BME280;13406;53.380;7.226;2023-05-23T05:46:57;102551.41;;;12.67;100.00
25498;BME280;13406;53.380;7.226;2023-05-23T05:49:22;102580.19;;;12.58;100.00
25498;BME280;13406;53.380;7.226;2023-05-23T05:51:48;102587.22;;;12.51;100.00
25498;BME280;13406;53.380;7.226;2023-05-23T05:54:13;102534.28;;;12.27;100.00
25498;BME280;13406;53.380;7.226;2023-05-23T05:56:39;102538.47;;;12.21;100.00
25498;BME280;13406;53.380;7.226;2023-05-23T05:59:06;102584.38;;;12.53;100.00
25498;BME280;13406;53.380;7.226;2023-05-23T06:01:32;102528.38;;;12.07;100.00
25498;BME280;13406;53.380;7.226;2023-05-23T06:03:59;102587.38;;;12.50;100.00
25498;BME280;13406;53.380;7.226;2023-05-23T06:06:24;102551.06;;;12.05;100.00
25498;BME280;13406;53.380;7.226;2023-05-23T06:08:50;102610.63;;;12.59;100.00
25498;BME280;13406;53.380;7.226;2023-05-23T06:11:16;102567.22;;;12.13;100.00
25498;BME280;13406;53.380;7.226;2023-05-23T06:13:41;102597.97;;;12.02;100.00
25498;BME280;13406;53.380;7.226;2023-05-23T06:16:07;102662.56;;;12.35;100.00
25498;BME280;13406;53.380;7.226;2023-05-23T06:18:32;102672.34;;;12.60;100.00
25498;BME280;13406;53.380;7.226;2023-05-23T06:20:58;102680.59;;;12.42;100.00
25498;BME280;13406;53.380;7.226;2023-05-23T06:23:23;102675.22;;;12.59;100.00
25498;BME280;13406;53.380;7.226;2023-05-23T06:25:48;102684.63;;;12.47;100.00
25498;BME280;13406;53.380;7.226;2023-05-23T06:28:14;102565.81;;;11.84;100.00
25498;BME280;13406;53.380;7.226;2023-05-23T06:30:40;102673.50;;;12.50;100.00
25498;BME280;13406;53.380;7.226;2023-05-23T06:33:05;102679.38;;;12.12;100.00
25498;BME280;13406;53.380;7.226;2023-05-23T06:35:30;102698.22;;;12.37;100.00
25498;BME280;13406;53.380;7.226;2023-05-23T06:37:56;102695.34;;;12.22;100.00
25498;BME280;13406;53.380;7.226;2023-05-23T06:40:21;102687.09;;;12.24;100.00
25498;BME280;13406;53.380;7.226;2023-05-23T06:42:47;102579.69;;;11.63;100.00
25498;BME280;13406;53.380;7.226;2023-05-23T06:45:12;102658.19;;;12.26;100.00
25498;BME280;13406;53.380;7.226;2023-05-23T06:47:38;102594.25;;;12.03;100.00
25498;BME280;13406;53.380;7.226;2023-05-23T06:50:04;102647.94;;;12.37;100.00
25498;BME280;13406;53.380;7.226;2023-05-23T06:52:29;102657.19;;;12.18;100.00
25498;BME280;13406;53.380;7.226;2023-05-23T06:54:55;102650.59;;;12.05;100.00
25498;BME280;13406;53.380;7.226;2023-05-23T06:57:20;102673.66;;;12.15;100.00
25498;BME280;13406;53.380;7.226;2023-05-23T06:59:46;102672.47;;;12.18;100.00
25498;BME280;13406;53.380;7.226;2023-05-23T07:02:11;102657.84;;;12.29;100.00
25498;BME280;13406;53.380;7.226;2023-05-23T07:04:36;102543.59;;;11.74;100.00
25498;BME280;13406;53.380;7.226;2023-05-23T07:07:02;102583.34;;;12.29;100.00
25498;BME280;13406;53.380;7.226;2023-05-23T07:09:27;102507.53;;;12.09;100.00
25498;BME280;13406;53.380;7.226;2023-05-23T07:11:53;102515.72;;;12.57;100.00
25498;BME280;13406;53.380;7.226;2023-05-23T07:14:18;102489.03;;;12.14;100.00
25498;BME280;13406;53.380;7.226;2023-05-23T07:16:44;102438.94;;;11.81;100.00
25498;BME280;13406;53.380;7.226;2023-05-23T07:19:11;102491.06;;;12.04;100.00
25498;BME280;13406;53.380;7.226;2023-05-23T07:21:37;102568.25;;;12.53;100.00
25498;BME280;13406;53.380;7.226;2023-05-23T07:24:02;102451.91;;;11.93;100.00
25498;BME280;13406;53.380;7.226;2023-05-23T07:26:28;102509.88;;;12.37;100.00
25498;BME280;13406;53.380;7.226;2023-05-23T07:28:53;102491.16;;;12.60;100.00
25498;BME280;13406;53.380;7.226;2023-05-23T07:31:19;102363.47;;;11.82;100.00
25498;BME280;13406;53.380;7.226;2023-05-23T07:33:44;102472.03;;;12.38;100.00
25498;BME280;13406;53.380;7.226;2023-05-23T07:36:10;102443.81;;;12.18;100.00
25498;BME280;13406;53.380;7.226;2023-05-23T07:38:35;102358.78;;;11.76;100.00
25498;BME280;13406;53.380;7.226;2023-05-23T07:41:01;102422.72;;;12.54;100.00
25498;BME280;13406;53.380;7.226;2023-05-23T07:43:26;102406.94;;;12.35;100.00
25498;BME280;13406;53.380;7.226;2023-05-23T07:45:52;102369.34;;;12.10;100.00
25498;BME280;13406;53.380;7.226;2023-05-23T07:48:18;102456.41;;;12.26;100.00
25498;BME280;13406;53.380;7.226;2023-05-23T07:50:43;102453.22;;;12.22;100.00
25498;BME280;13406;53.380;7.226;2023-05-23T07:53:09;102419.97;;;11.98;100.00
25498;BME280;13406;53.380;7.226;2023-05-23T07:55:34;102509.53;;;12.48;100.00
25498;BME280;13406;53.380;7.226;2023-05-23T07:57:59;102409.69;;;12.02;100.00
25498;BME280;13406;53.380;7.226;2023-05-23T08:00:25;102430.91;;;12.61;100.00
25498;BME280;13406;53.380;7.226;2023-05-23T08:02:51;102388.91;;;12.43;100.00
25498;BME280;13406;53.380;7.226;2023-05-23T08:05:16;102291.59;;;11.92;100.00
25498;BME280;13406;53.380;7.226;2023-05-23T08:07:43;102412.06;;;12.61;100.00
25498;BME280;13406;53.380;7.226;2023-05-23T08:10:09;102319.78;;;11.96;100.00
25498;BME280;13406;53.380;7.226;2023-05-23T08:12:34;102341.84;;;12.39;100.00
25498;BME280;13406;53.380;7.226;2023-05-23T08:15:00;102406.66;;;12.69;100.00
25498;BME280;13406;53.380;7.226;2023-05-23T08:17:25;102403.59;;;12.80;100.00
25498;BME280;13406;53.380;7.226;2023-05-23T08:19:52;102288.75;;;12.33;100.00
25498;BME280;13406;53.380;7.226;2023-05-23T08:22:17;102350.00;;;12.62;100.00
25498;BME280;13406;53.380;7.226;2023-05-23T08:24:43;102393.63;;;12.89;100.00
25498;BME280;13406;53.380;7.226;2023-05-23T08:27:08;102421.38;;;12.89;100.00
25498;BME280;13406;53.380;7.226;2023-05-23T08:29:33;102434.22;;;12.87;100.00
25498;BME280;13406;53.380;7.226;2023-05-23T08:32:02;102361.53;;;12.40;100.00
25498;BME280;13406;53.380;7.226;2023-05-23T08:34:28;102432.66;;;12.93;100.00
25498;BME280;13406;53.380;7.226;2023-05-23T08:36:53;102401.22;;;13.17;100.00
25498;BME280;13406;53.380;7.226;2023-05-23T08:39:19;102401.06;;;13.10;100.00
25498;BME280;13406;53.380;7.226;2023-05-23T08:41:44;102371.91;;;12.91;100.00
25498;BME280;13406;53.380;7.226;2023-05-23T08:44:10;102365.91;;;12.80;100.00
25498;BME280;13406;53.380;7.226;2023-05-23T08:46:43;102341.50;;;12.42;100.00
25498;BME280;13406;53.380;7.226;2023-05-23T08:49:10;102393.19;;;12.69;100.00
25498;BME280;13406;53.380;7.226;2023-05-23T08:51:41;102410.25;;;12.93;100.00
25498;BME280;13406;53.380;7.226;2023-05-23T08:54:08;102394.59;;;12.96;100.00
25498;BME280;13406;53.380;7.226;2023-05-23T08:56:37;102292.31;;;12.57;100.00
25498;BME280;13406;53.380;7.226;2023-05-23T08:59:03;102324.06;;;12.93;100.00
25498;BME280;13406;53.380;7.226;2023-05-23T09:01:29;102317.34;;;12.97;100.00
25498;BME280;13406;53.380;7.226;2023-05-23T09:03:55;102420.13;;;13.40;100.00
25498;BME280;13406;53.380;7.226;2023-05-23T09:06:24;102419.03;;;13.26;100.00
25498;BME280;13406;53.380;7.226;2023-05-23T09:08:49;102260.94;;;12.41;100.00
25498;BME280;13406;53.380;7.226;2023-05-23T09:11:15;102323.13;;;12.54;100.00
25498;BME280;13406;53.380;7.226;2023-05-23T09:13:40;102395.47;;;12.88;100.00
25498;BME280;13406;53.380;7.226;2023-05-23T09:16:08;102444.97;;;13.19;100.00
25498;BME280;13406;53.380;7.226;2023-05-23T09:18:37;102399.03;;;12.81;100.00
25498;BME280;13406;53.380;7.226;2023-05-23T09:21:03;102347.44;;;12.69;100.00
25498;BME280;13406;53.380;7.226;2023-05-23T09:23:32;102389.53;;;13.24;100.00
25498;BME280;13406;53.380;7.226;2023-05-23T09:26:06;102351.16;;;12.99;100.00
25498;BME280;13406;53.380;7.226;2023-05-23T09:28:32;102392.03;;;13.34;100.00
25498;BME280;13406;53.380;7.226;2023-05-23T09:30:59;102430.16;;;13.23;100.00
25498;BME280;13406;53.380;7.226;2023-05-23T09:33:34;102329.97;;;12.65;100.00
25498;BME280;13406;53.380;7.226;2023-05-23T09:36:02;102431.13;;;13.30;100.00
25498;BME280;13406;53.380;7.226;2023-05-23T09:38:28;102394.53;;;13.36;100.00
25498;BME280;13406;53.380;7.226;2023-05-23T09:40:53;102363.41;;;13.25;100.00
25498;BME280;13406;53.380;7.226;2023-05-23T09:43:20;102408.84;;;13.59;100.00
25498;BME280;13406;53.380;7.226;2023-05-23T09:45:46;102444.69;;;13.45;100.00
25498;BME280;13406;53.380;7.226;2023-05-23T09:48:11;102344.13;;;12.90;100.00
25498;BME280;13406;53.380;7.226;2023-05-23T09:50:38;102319.56;;;12.62;100.00
25498;BME280;13406;53.380;7.226;2023-05-23T09:53:03;102350.81;;;12.71;100.00
25498;BME280;13406;53.380;7.226;2023-05-23T09:55:29;102357.41;;;12.92;100.00
25498;BME280;13406;53.380;7.226;2023-05-23T09:57:57;102409.56;;;13.53;100.00
25498;BME280;13406;53.380;7.226;2023-05-23T10:00:23;102408.28;;;13.49;100.00
25498;BME280;13406;53.380;7.226;2023-05-23T10:08:03;102321.78;;;12.81;100.00
25498;BME280;13406;53.380;7.226;2023-05-23T10:10:31;102323.34;;;12.99;100.00
25498;BME280;13406;53.380;7.226;2023-05-23T10:13:01;102362.00;;;13.14;100.00
25498;BME280;13406;53.380;7.226;2023-05-23T10:15:34;102351.94;;;13.08;100.00
25498;BME280;13406;53.380;7.226;2023-05-23T10:18:17;102441.81;;;13.69;100.00
25498;BME280;13406;53.380;7.226;2023-05-23T10:20:48;102426.31;;;13.71;100.00
25498;BME280;13406;53.380;7.226;2023-05-23T10:23:17;102423.41;;;13.73;100.00
25498;BME280;13406;53.380;7.226;2023-05-23T10:25:43;102327.63;;;13.16;100.00
25498;BME280;13406;53.380;7.226;2023-05-23T10:28:11;102260.81;;;12.65;100.00
25498;BME280;13406;53.380;7.226;2023-05-23T10:30:38;102419.59;;;13.67;100.00
25498;BME280;13406;53.380;7.226;2023-05-23T10:33:04;102260.03;;;12.80;100.00
25498;BME280;13406;53.380;7.226;2023-05-23T10:39:14;102413.03;;;13.85;100.00
25498;BME280;13406;53.380;7.226;2023-05-23T10:41:52;102302.81;;;13.67;100.00
25498;BME280;13406;53.380;7.226;2023-05-23T10:44:28;102318.88;;;13.60;100.00
25498;BME280;13406;53.380;7.226;2023-05-23T10:46:58;102316.84;;;13.16;100.00
25498;BME280;13406;53.380;7.226;2023-05-23T10:49:45;102304.19;;;13.02;100.00
25498;BME280;13406;53.380;7.226;2023-05-23T10:52:18;102396.09;;;13.76;100.00
25498;BME280;13406;53.380;7.226;2023-05-23T10:54:46;102330.53;;;13.75;100.00
25498;BME280;13406;53.380;7.226;2023-05-23T10:57:16;102292.16;;;13.50;100.00
25498;BME280;13406;53.380;7.226;2023-05-23T10:59:41;102279.28;;;13.61;100.00
25498;BME280;13406;53.380;7.226;2023-05-23T11:02:12;102244.78;;;13.71;100.00
25498;BME280;13406;53.380;7.226;2023-05-23T11:04:40;102293.91;;;14.11;100.00
25498;BME280;13406;53.380;7.226;2023-05-23T11:07:29;102307.13;;;14.20;100.00
25498;BME280;13406;53.380;7.226;2023-05-23T11:13:07;102272.59;;;14.01;100.00
25498;BME280;13406;53.380;7.226;2023-05-23T11:15:41;102298.53;;;14.17;100.00
25498;BME280;13406;53.380;7.226;2023-05-23T11:18:09;102217.03;;;13.32;100.00
25498;BME280;13406;53.380;7.226;2023-05-23T11:20:36;102294.72;;;13.82;100.00
25498;BME280;13406;53.380;7.226;2023-05-23T11:23:07;102196.06;;;13.72;100.00
25498;BME280;13406;53.380;7.226;2023-05-23T11:25:42;102275.56;;;14.36;100.00
25498;BME280;13406;53.380;7.226;2023-05-23T11:28:12;102283.56;;;13.99;100.00
25498;BME280;13406;53.380;7.226;2023-05-23T11:30:38;102283.03;;;14.04;100.00
25498;BME280;13406;53.380;7.226;2023-05-23T11:33:14;102184.34;;;13.36;100.00
25498;BME280;13406;53.380;7.226;2023-05-23T11:35:47;102208.50;;;13.29;100.00
25498;BME280;13406;53.380;7.226;2023-05-23T11:38:17;102207.03;;;13.18;100.00
25498;BME280;13406;53.380;7.226;2023-05-23T11:40:44;102237.09;;;13.07;100.00
25498;BME280;13406;53.380;7.226;2023-05-23T11:43:14;102313.75;;;14.03;100.00
25498;BME280;13406;53.380;7.226;2023-05-23T11:45:44;102308.13;;;13.90;100.00
25498;BME280;13406;53.380;7.226;2023-05-23T11:48:13;102296.88;;;14.16;100.00
25498;BME280;13406;53.380;7.226;2023-05-23T11:50:48;102281.22;;;14.26;100.00
25498;BME280;13406;53.380;7.226;2023-05-23T11:53:14;102177.75;;;13.53;100.00
25498;BME280;13406;53.380;7.226;2023-05-23T11:55:57;102295.31;;;13.92;100.00
25498;BME280;13406;53.380;7.226;2023-05-23T11:58:32;102271.66;;;14.23;100.00
25498;BME280;13406;53.380;7.226;2023-05-23T12:01:01;102224.34;;;14.06;100.00
25498;BME280;13406;53.380;7.226;2023-05-23T12:03:28;102211.31;;;13.95;100.00
25498;BME280;13406;53.380;7.226;2023-05-23T12:05:54;102286.50;;;14.49;100.00
25498;BME280;13406;53.380;7.226;2023-05-23T12:08:20;102274.25;;;14.32;100.00
25498;BME280;13406;53.380;7.226;2023-05-23T12:10:52;102187.44;;;13.77;100.00
25498;BME280;13406;53.380;7.226;2023-05-23T12:13:18;102197.66;;;13.52;100.00
25498;BME280;13406;53.380;7.226;2023-05-23T12:15:44;102232.16;;;13.86;100.00
25498;BME280;13406;53.380;7.226;2023-05-23T12:18:10;102224.31;;;13.91;100.00
25498;BME280;13406;53.380;7.226;2023-05-23T12:20:37;102279.16;;;14.58;100.00
25498;BME280;13406;53.380;7.226;2023-05-23T12:23:05;102246.94;;;14.56;100.00
25498;BME280;13406;53.380;7.226;2023-05-23T12:25:39;102261.31;;;15.00;100.00
25498;BME280;13406;53.380;7.226;2023-05-23T12:28:06;102247.50;;;14.88;100.00
25498;BME280;13406;53.380;7.226;2023-05-23T12:30:40;102246.38;;;14.61;100.00
25498;BME280;13406;53.380;7.226;2023-05-23T12:33:07;102253.78;;;14.22;100.00
25498;BME280;13406;53.380;7.226;2023-05-23T12:35:33;102272.38;;;14.17;100.00
25498;BME280;13406;53.380;7.226;2023-05-23T12:37:59;102169.13;;;13.28;100.00
25498;BME280;13406;53.380;7.226;2023-05-23T12:40:25;102203.88;;;13.38;100.00
25498;BME280;13406;53.380;7.226;2023-05-23T12:42:52;102242.47;;;13.68;100.00
25498;BME280;13406;53.380;7.226;2023-05-23T12:45:30;102302.44;;;13.99;100.00
25498;BME280;13406;53.380;7.226;2023-05-23T12:47:55;102236.50;;;13.57;100.00
25498;BME280;13406;53.380;7.226;2023-05-23T12:50:21;102211.41;;;13.57;100.00
25498;BME280;13406;53.380;7.226;2023-05-23T12:52:47;102216.56;;;14.33;100.00